SMRA20 UAOL 242100
AAXX 24211
20046 42598 72301 11194 21220 30049 40079 53001 87500 333 87623=
20069 41909 11102 11219 21234 30063 40083 58003 74840 80001=
20087 42998 61803 11194 21215 30088 40099 52003 84031=
20107 42599 10901 11126 21183 39965 40065 54001 81500 333 91002=
20471 41998 51405 11167 21179 30046 40063 57009 70273 83031=
20667 42998 02503 11217 21237 30044 40051 54001=
20674 42498 71705 11127 21142 39984 40045 57009 875// 333 87610=
20871 41998 61904 11131 21144 30053 40060 57012 70273 86030=
20891 42998 31603 11158 21164 30136 40180 57011 82031=
20946 42997 61903 11071 21081 30044 40057 58020 86030=
21802 42999 82807 11172 21209 30153 40178 52013 85030=
21813 41997 80506 11096 21112 30063 40098 52022 77173 8807/=
21908 42599 53203 11134 21147 30095 40178 52021 83502=
21921 41596 82003 11085 21109 30039 40081 52014 77072 885//=
21946 12999 21205 11147 21172 39940 40020 52002 60002 80001  333 21171 44109 555 7000/=
21978 11998 00908 11144 21157 30056 40064 57002 60002 73630 333 21159 3/119 44056 91010 91112 555 7000/=
22100 42/// /2001 10040 21039 39790 49930 57013 333 91004=
22101 42/// /1701 10015 21015 39800 49924 57013 333 91002=
22105 42/// /2201 10041 21041 39830 49940 57014 333 91004=
22217 42497 71502 10039 21033 39939 49970 57010 86970 333 91005=
22235 42/// /1902 11001 21059 39807 40002 57018 333 91005=
22249 42999 22003 11017 21070 39834 40022 57016 80001 333 91007=
22271 42598 62006 11025 21036 30024 40030 57014 83509=
22312 42/// /1502 10042 21048 39953 49975 57016 333 91003=
22334 43/// /1706 10010 21021 30000 40007 57017 333 91007 91111=
22349 42/// /1807 10002 21034 30020 40031 57018 333 91009 91111=
22365 42998 21905 11044 21081 30024 40051 57015 80001=
22383 42997 81604 11067 21104 30056 40073 58012 80007=
22408 42484 81703 10020 21025 39838 49985 57013 885// 333   88612=
22429 42998 71604 10020 21048 30005 40014 57016 87030=
22438 42598 81805 10016 21052 39999 40021 57016 8355/=
22456 42998 01701 11009 21094 39969 40057 57013=
22471 42999 51502 11011 21074 30039 40063 57008 80001=
22481 42998 21603 11037 21108 30019 40073 57012 80001=
22520 42998 81703 10029 21043 39997 40006 57015 80007=
22525 42/// /1602 10009 21029 30003 40016 57015=
22546 42998 01602 10021 21081 30044 40054 57013=
22550 42980 01302 11008 21070 30047 40057 57011=
22551 42998 11405 11022 21054 30062 40066 53002 81030=
22559 42998 01702 10002 21079 30052 40069 57010=
22563 42997 01702 11019 21087 30035 40070 57008=
22573 42999 21403 11023 21091 39988 40077 57010 82030=
22583 42984 00000 11061 21093 30007 40090 57005=
22602 42474 71702 10023 21028 39772 49994 57019 87500 333   87614=
22619 42698 81602 10033 21044 39856 40013 57016 885// 333   88646=
22621 42998 81502 10032 21070 39884 40021 57016 8805/=
22641 42999 61502 10016 21092 30030 40045 57013 86030=
22648 42998 11502 11002 21094 30017 40063 57010 81030=
22656 42997 01602 11025 21063 30054 40076 57009=
22671 42998 00000 11047 21087 30004 40085 57006=
22676 42998 01502 11052 21083 30014 40093 57004=
22695 42997 10000 11049 21092 39949 40105 54001 80001=
22717 42584 81502 10041 20008 39826 40016 57015 885// 333 88620=
22721 42997 81101 10013 21023 39927 40028 57016 8805/=
22727 83770 /1403 10025 21030 39981 40028 57014=
22749 42998 01701 11028 21069 39945 40071 57009=
22762 42998 01502 11012 21100 30050 40089 57008=
22768 42997 11701 11030 21074 30042 40094 57006 80001=
22778 42998 00000 11059 21085 30030 40104 57002=
22798 42984 00000 11067 21094 39992 40108 52002=
22802 42580 81101 10027 21000 39987 40010 57014 885// 333   88621=
22820 42/// /1702 10059 21051 39894 40028 57015 555   50026=
22829 42/// /0801 10039 21009 39993 40043 57012=
22831 42997 60801 10002 21056 39993 40048 57013 83031=
22845 42998 11603 10020 21083 39918 40074 57009 80001=
22854 42984 01301 11027 21083 39796 40087 57008=
22867 42998 00000 11022 21079 39982 40096 57004=
22869 42998 00701 11030 21088 39955 40106 57003=
22876 42/// /2301 11041 21069 30032 40106 54000=
22887 42997 10801 11045 21058 30031 40103 54000 80001=
22889 42/// /0000 11052 21070 30020 40109 52003=
22891 42999 81802 10051 20030 39925 40011 57015 8802/=
22892 41597 81902 10043 20035 39991 40007 57010 72582 8692/=
22897 42/// /1201 10063 20056 39993 40007 57013=
22913 41597 81501 10066 20020 30002 40030 58015 72582 8597/=
22925 42584 81904 10060 21010 39904 40039 57015 889// 333 86930=
22939 42897 61603 10022 21088 39912 40073 57010 83035=
22951 42998 01001 11041 21086 39808 40094 57006=
22954 42999 01802 11007 21101 39841 40092 57006=
22983 42984 02501 11050 21063 30000 40107 52002 333 91002 91102=
22996 42998 10000 11036 21087 39915 40104 52005 81030=
23022 41597 81807 11093 21109 30005 40074 58016 73632 885//=
23032 42/// /2703 11090 21093 30054 40087 57003=
23078 41897 81405 11067 21139 30010 40093 57031 73632 8805/=
23112 42498 62006 11084 21093 30070 40079 58015 86500=
23114 42597 62007 11091 21107 30067 40075 58016 83506=
23205 42998 51903 11045 21088 30061 40075 57015 82031=
23226 42260 80000 11091 21098 39886 40108 54000 887// 333 86706=
23256 42998 80203 11086 21095 30011 40047 57017 8807/=
23274 42597 71202 11031 21099 30025 40061 57038 82538=
23324 42982 00302 11204 21210 30032 40116 58007=
23330 42997 00201 11172 21192 30070 40092 57002 333 93501=
23339 41998 80202 11106 21123 30037 40083 54001 77172 80007=
23358 41595 80105 11051 21056 39943 40022 56012 78683 8435/=
23376 43/// /0502 11030 21116 39949 40077 58035=
23405 42997 11403 11026 21082 39997 40097 57008 80001=
23412 42999 20502 11083 21094 30005 40104 58007 80001=
23418 42965 00000 11101 21114 30027 40103 57003=
23426 42984 03502 11095 21116 30068 40092 54000=
23431 42998 02601 11144 21157 30070 40092 54000=
23443 42998 80102 11059 21062 39966 40032 57007 8807/=
23445 42997 63303 11088 21102 30015 40033 52002 80001=
23453 42/// /0204 11030 21030 39980 40010 57018=
23471 42998 71504 10035 20025 39916 49983 57014 87030=
23472 41598 51303 10001 21108 30012 40065 57036 70231 82501=
23503 42998 00000 11120 21130 30054 40106 58003=
23527 42984 02501 11124 21134 30060 40098 52001=
23578 425// 81603 10022 21093 30020 40057 57033 85507=
23589 429// 70201 11073 21143 30033 40172 57017 87070=
23606 42960 00000 11050 21078 39929 40105 54000=
23625 42998 03301 11069 21103 30053 40087 54001=
23631 42998 00204 11056 21107 30035 40077 52004=
23635 42997 03602 11068 21094 39919 40029 52002=
23656 41498 81803 10025 20008 39902 49985 57010 70262 8872/=
23662 12998 81303 10038 21108 30012 40054 57036 60002 8807/ 333 10051 91110 555 51041 53013=
23678 429// 21105 10023 21064 30033 40089 57024 82020 333 91111=
23708 42984 03601 11054 21106 39954 40107 52004=
23711 42998 03402 11026 21105 39926 40101 52002=
23724 42998 02901 11077 21100 30020 40086 52008=
23734 42998 00302 11027 21068 39945 40036 52005=
23748 42982 81602 10021 20013 39878 49961 57010 8802/=
23758 42597 81604 10025 20009 39900 49984 57013 82531=
23774 43/// /1602 10033 21032 39993 40068 56024=
23776 429// 51402 10005 21057 30052 40114 57018 80002=
23803 42999 60202 11018 21105 39920 40101 51005 80001=
23804 42997 00000 11051 21074 39954 40102 52001=
23812 42997 00000 11082 21085 39922 40090 52001=
23823 42998 23402 11053 21083 39907 40048 52004 80002=
23847 42597 83502 10001 21003 39914 49955 54001 885//=
23849 41896 21402 10031 20028 39883 49955 57012 71000 82030=
23862 42597 81503 10030 20005 39939 40031 57016 885// 333 91111=
23867 41596 81503 10028 20013 39947 40016 57020 78082 8692/=
23884 425// 81301 10016 21025 30064 40137 57014 85506=
23891 42999 00000 11090 21134 39903 40225 58004=
23909 42998 12901 11033 21033 39847 40094 52004 80001=
23914 42499 33101 11009 21038 39824 40082 52006 83500=
23921 42698 83502 11015 21053 39954 40072 52005 81501=
23929 42574 83406 11012 21041 39967 40034 52003 889//=
23939 41596 83402 11017 21024 39941 49981 54001 78582 883//=
23946 42597 52001 10024 20005 39906 49968 57012 85900=
23947 42497 72504 10008 21011 39904 49972 54001 87900=
23966 42499 81702 10028 20018 39952 40075 57021 8595/=
23973 46/// /1805 10017 21008 30070 40131 58022 333 91110=
23975 425// 81403 10023 20004 30017 40123 57022 885//=
23982 429// 33301 11054 21096 30038 40196 57005 80001=
23986 429// 72002 11019 21057 39554 40185 58015 84011=
23987 42597 71406 10027 21003 30070 40142 57022 87900 333 91111=
24125 83/// /3003 11121 21160 39909 40197 52023=
24136 42999 63601 11115 21150 30047 40148 52029 86071=
24143 42999 83602 11112 21132 30057 40108 53031 80007=
24194 12/// /0504 11069 21111 39936 49992 52005 60002 333 21083=
24261 62/// /2804 11085 21098 39425 40038 52019 60002 333 21090=
24263 12699 82202 11073 21149 39762 40033 52017 69962 82531 333 21079 47015 555 7996/=
24266 12799 82203 11077 21160 39860 40035 52018 69982 81536 333 21081 47001 555 7002/=
24329 41596 83407 11099 21130 39854 40159 52021 77573 86029=
24343 42998 43502 11145 21158 39976 40099 52020 80002=
24361 12999 61502 11101 21186 39784 40042 53017 60002 80005 333 21115 43027 555 7000/=
24371 12599 80000 11073 21149 39698 40044 51004 69932 8492/ 333 21074 47026 555 7993/=
24449 42999 13101 11130 21150 39992 40089 52015 80001=
24462 42999 00000 11192 21211 39116 40112 52007=
24477 12999 00000 11240 21265 39223 40110 53008 69962 333 21281 47030 55046 555 7996/=
24507 429// 00000 11170 21196 39999 40256 54000=
24525 42999 83204 11074 21104 39843 40165 52007 8807/=
24538 41598 83204 11088 21103 39945 40126 53017 77187 885//=
24557 42999 20000 11121 21121 39968 40079 53004 80001=
24588 12999 60000 11063 21095 39302 40026 57004 60032 86030 333 21063 47018 555 7003/=
24606 428// 10000 11162 21175 39978 40261 52006 81040=
24639 41998 82704 11077 21117 39965 40119 54000 77170 8802/=
24641 41998 82602 11089 21123 39949 40093 53005 77172 86017=
24643 42999 80000 11112 21118 39980 40080 53001 82035=
24656 41998 80000 11093 21096 39975 40079 53001 77172 8802/=
24661 42999 20000 11154 21167 39808 40082 53011 80001=
24668 42999 60000 11141 21161 39962 40082 58005 82035=
24671 12699 20000 11163 21189 39561 40084 53009 60002 81501 333 21165 46014 555 7001/=
24684 12999 22102 11111 21164 39086 40046 53006 60002 80001 333 21113 47033 555 7000/=
24688 11699 83005 11069 21126 39116 40018 57004 69932 73683 82977 333 21074 43031 555 7993/=
24691 12699 83401 11082 21114 39012 49983 57008 60002 8451/ 333 21097 47046 555 7000/=
24724 42999 12904 11094 21140 39649 40188 52003 80001 333 91110=
24725 42999 03201 11094 21163 39847 40214 52002=
24726 42999 22904 11089 21138 39720 40178 52002 82030=
24737 42998 32603 11065 21142 39978 40158 53001 80008=
24738 42599 82803 11069 21126 39965 40142 53001 8593/ 333 85928=
24753 42999 82502 11066 21116 39964 40079 52001 80007=
24758 42999 82602 11077 21117 39802 40097 53003 80006=
24768 42998 72201 11098 21119 39845 40072 54000 80002=
24771 12599 30000 11149 21164 39714 40091 57004 60022 83300  333 21209 47020 555 7005/=
24802 42999 00000 11136 21163 39812 40284 52020=
24817 42999 50000 11091 21125 39881 40246 52012 80001=
24826 42999 02602 11086 21157 39740 40193 58001=
24843 42999 80000 11077 21127 39849 40105 53002 8802/=
24856 42999 82601 11087 21116 39938 40094 54000 80002=
24871 12598 62101 11084 21091 39898 40080 52003 60002 86500 333 21088 43026 555 7004/=
24894 11697 81901 11057 21078 38969 49973 57019 69932 78582 889// 333 21082 47069 555 53005 7993/=
24898 11696 72003 11045 21069 39305 40005 58012 69902 78682 85950 333 21060 48023 555 53007=
24908 42998 00501 11104 21116 39915 40255 52009=
24918 429// 20000 11101 21107 39867 40251 52020 80001=
24923 42999 12504 11065 21142 39885 40194 52007 80001=
24928 42999 00000 11120 21126 39847 40238 52021=
24933 42999 22702 11074 21123 39833 40153 52003 80001=
24944 42699 82803 11064 21109 39846 40140 52005 82501=
24951 42999 82901 11054 21109 39946 40113 54000 8807/=
24959 42999 82702 11057 21091 39957 40086 54000 81031=
24962 41997 42201 11096 21108 39905 40094 53003 71000 82031=
24967 42599 22401 11070 21091 39889 40109 52003 82500=
24982 11599 21501 11036 21055 39518 40007 54000 69982 70281 82900 333 21049 42012 555 53007 7998/=
25044 11598 61401 11182 21194 30044 40050 54000 60002 70241 82530 333 21220 3/122 44092 91103 555 7000/=
25051 11999 13501 11121 21140 30046 40053 57002 69902 77670 80002  333 21153 44010 91106 555=
25062 42997 20704 11153 21193 30076 40080 53003 82030 333 91106=
25151 11/93 92701 11158 21158 30046 40052 57004 60002 74944 333 21227 3/119 47086 91102 555 7000/=
25282 41996 83509 11091 21102 39983 49989 57019 77173 8802/ 333 91114=
25399 41498 80403 11005 21032 39864 49873 57028 70283 886// 333 91108=
25428 12984 30901 11106 21167 39688 40021 56003 60002 80001 333 21188 3/123 43071 91102 555 7000/=
25469 42999 20104 11078 21123 39950 49974 57009 82040 333 91107=
25551 42999 13101 11040 21140 39966 49996 57005 80001 333 91103=
25820 11396 80203 11069 21093 30007 40022 54001 60002 71011 886// 333 21099 44108 88706 555 53006 7000/=
25913 12498 82504 11033 21038 39903 40050 58006 60002 886// 333 21034 44037 91110 555 53010 7000/=
25919 12999 60509 10011 21066 30029 40045 55001 60002 82034 333 21044 43022 91011 91112 555 7000/=
25927 12699 62510 11029 21074 30020 40027 57003 60002 82531 333 21105 44184 91012 91112 555 53012 7000/=
25941 11598 62612 11016 21047 30008 40025 54000 60002 73631 86500 333 21024 44021 91017 91119 555 53019 7000/=
26038 21270 81802 10062 20056 39953 49994 58014 78082 887// 333 10110 20061 69927 88507 555 20061 50084=
26045 27675 72004 10065 20054 30001 40004 58009 76160 87/// 333 10137 20055 69987 87/35 555 20055 50074=
26058 27670 72203 10068 20045 39978 40012 57007 76180 87/// 333 10097 20060 69917 87/50 555 20060 50057=
26059 41997 82202 10065 20056 39990 40014 57008 70282 8807/=
26060 41497 81802 10070 20047 30005 40011 57012 75152 886//=
26063 41597 81301 10070 20042 30008 40016 57013 78082 889//=
26069 42599 71803 10055 20046 39911 40020 57012 87500 333 87622=
26072 42998 61601 10051 20046 30001 40021 57014 86030=
26078 42/// /1702 10060 20049 39977 40025 57014=
26080 42584 81702 10061 20051 39998 40030 57012 885// 333 88628=
26094 42497 81802 10064 20048 39960 40036 57014 886// 333   88716=
26099 42/// /1502 10057 20007 39830 40044 57015=
26115 27128 81802 10046 20045 39972 49981 57019 76161 88/// 333 10073 20045 69967 88/02 555 20045 50051=
26135 27269 81802 10061 20056 39932 40006 57020 76166 88/// 333 10140 20059 60027 88/05 555 20059 50081 52006=
26157 41597 82002 10065 20048 39976 40026 58007 78082 889//=
26179 41597 81903 10063 20053 30005 40036 57009 78082 889//=
26214 21119 82008 10054 20050 39975 49982 57021 76362 8872/  333  10085 20053 60027 88502 91011 91112  555  1/006 20053 3/006 50062=
26242 21463 81802 10067 20057 39934 40020 58014 76162 8872/ 333 10132 20067 69967 88516 555 1/007 20067 3/007 50088 52006=
26247 27/67 /1902 10073 20066 39947 40025 58018 78186 333 10137 20071 69927 555 20071 50095=
26258 41597 82201 10073 20063 39985 40039 57006 78082 889//=
26268 42/// /2203 10081 20071 39961 40039 57004=
26275 42598 81802 10074 20064 30009 40038 57013 885// 333   88622=
26285 42498 81801 10072 20054 39969 40046 57011 885// 333 88616=
26298 82597 71802 10063 20044 39829 40055 57011 87500=
26313 43/// /2103 10069 20064 40000 57021=
26346 41597 82002 10070 20057 40035 57015 70282 885//=
26359 41498 71601 10071 20066 39929 40051 57009 70282 87900=
26381 42/// /1201 10066 20039 39976 40050 57011=
26389 81596 61801 10063 20044 39799 40058 57010 71022 86500=
26393 81597 81702 10070 20043 39854 40058 57014 70282 889//=
26406 42597 82406 10060 20044 40033 57011 885// 333 88621 91010 91111=
26416 43/// /2304 10079 20066 39890 40026 5//// 333 91008=
26422 43/// /1806 10085 20067 40029 57021 333 91010 91111=
26424 43/// /2204 10084 20069 40030 57024 333 91110=
26477 41597 72102 10080 20076 39935 40062 58003 72582 87900=
26479 81597 81902 10069 20061 39837 40063 57009 72582 889//=
26499 81497 82002 10065 20038 39848 40073 57009 78082 889//=
26509 41569 82406 10073 20055 30049 40058 57008 70282 885// 333 91011 91112=
26518 41662 72405 10078 20062 40061 57010 70262 87500 333 87650 91010 91111=
26524 41570 82204 10084 20067 39922 40052 57016 72582 889// 333 88922 91008 91109=
26531 41660 82303 10084 20053 40054 58016 76186 8802/ 333 88536 91006 91107=
26544 43/// /2102 10096 20035 39947 40066 57011 333 91004=
26554 /2965 72302 10092 20040 39907 40066 58004 8103/=
26585 82597 72301 10058 20042 39805 40075 57008 87500=
26629 42770 82005 10101 20053 39975 40068 57022 885// 333 88650 91007 91107=
26633 42670 71802 10092 20041 39938 40066 57020 84550 333 91004 91110=
26643 42968 72302 10084 20050 39917 40075 58005 87030=
26645 42965 72101 10090 20040 39825 40079 57011 8707/=
26653 42960 72302 10094 20045 39914 40074 58001 87030=
26666 /1967 22301 10088 20067 39866 40077 52001 70181 82030=
26730 42870 71803 10092 20051 39892 40080 57018 87500 333 87674 91004 91104=
26759 /2581 20000 10079 20027 39862 40089 54000 81501 333 91110=
26763 41560 82601 10096 20068 39858 40079 54000 70382 8357/=
26774 /2964 71402 10074 20048 39842 40085 57003 87050=
26781 81496 82901 10068 20047 39798 40088 55001 78082 889//=
26784 82598 72201 10060 20032 39842 40089 57004 83531=
26795 81897 61901 10062 20031 39798 40086 57007 70262 82032=
26825 42961 72603 10126 20068 39908 40084 57010 87030=
26832 42460 70000 10106 20068 39903 40091 57010 86630 333 86710=
26850 /2580 82402 10117 20033 39825 40094 57006 885// 333 88723=
26853 42960 02401 10098 20041 39908 40092 52005 333 91110=
26855 42865 22101 10089 20041 39889 40102 52003 82050=
26863 42662 72804 10107 20058 39861 40091 53007 87500 333 87647=
26864 42597 62702 10093 20053 39911 40098 52008 86500 333 86630=
26878 /2567 72202 10093 20043 39884 40088 57002 875//=
26882 82984 72303 10063 20031 39818 40090 57003 87030=
26887 /2880 81801 10086 20041 39885 40086 58004 8807/=
26894 42963 52301 10075 20030 39870 40084 57005 82031=
26898 42997 52001 10091 20017 39833 40092 57007 85030=
26941 42660 71502 10111 20045 39867 40098 57010 87500=
26951 42968 72002 10095 20041 39911 40106 58002 87030=
26961 /2960 62402 10094 20036 39913 40101 52008 80001=
26966 42980 03201 10114 20040 39929 40099 52007=
26976 42997 61501 10093 20043 39913 40091 58004 86030=
26997 42968 62301 10110 20056 39885 40097 54000 86030=
27020 86/// /0701 11030 21052 39922 40072 57008=
27037 42998 01202 11002 21070 39930 40094 57008=
27051 42997 01900 11038 21076 39935 40105 58002=
27066 42998 00000 11042 21071 39934 40115 52001=
27083 42984 00000 11042 21068 39878 40100 52006 333 91000 91101=
27108 42/// /1602 10070 21020 39878 40056 58013=
27113 42960 30000 11020 21038 39933 40081 58011 81031=
27164 82997 00000 11041 21071 39925 40117 54001=
27176 82999 00000 11050 21077 39911 40114 52002=
27208 81597 71701 10075 21003 39893 40066 58010 78082 87900=
27215 82598 71602 10049 21061 39870 40074 57012 83530=
27223 82999 01504 10020 21103 39944 40091 57008=
27225 82962 01302 10019 21075 39959 40089 57008=
27242 82998 00000 11016 21057 39976 40106 57005=
27252 42998 03001 11034 21077 39926 40115 54001=
27271 82997 00000 11064 21073 39954 40115 54001=
27277 42998 00000 11028 21055 39946 40177 51002 333 91000 91102=
27316 82999 71302 10049 21050 39912 40082 57010 87030=
27321 82974 81401 10043 21082 39937 40086 57010 8805/=
27329 82984 01901 10031 21035 39974 40099 57006=
27333 83/// /1204 10014 21082 39948 40105 57005=
27347 82997 21402 10004 21068 39954 40111 57005 80001=
27355 82997 01301 11003 21079 39950 40116 57003=
27369 42997 00000 11026 21063 39977 40117 52001 333 91000 91102=
27373 42996 02001 11034 21066 39897 40119 52004 333 91001 91102=
27402 82997 70000 10091 21012 39896 40072 57012 87030=
27453 42997 00000 11021 21040 39986 40117 58002 333 91000 91101=
27459 42997 00000 10021 21090 39922 40117 57001 333 91000 91101=
27479 42997 02402 10019 21070 39984 40118 52003 333 91003 91103=
27507 81958 81602 10066 20037 39847 40081 57010 76162 8802/=
27511 82997 82002 10088 21028 39888 40080 57010 86025=
27532 82997 71702 10037 21087 39895 40106 57006 80001=
27539 82998 31101 11008 21036 39944 40115 57004 80005=
27577 42998 00701 11010 21080 39967 40124 51003 333 91002 91103=
27593 42598 63302 10002 21024 39917 40108 52004 8650/=
27595 42597 62701 10010 21032 39969 40118 54001 86500=
27606 429// 81702 10082 21021 39852 40090 57011 80007=
27612 825// 80000 10088 21038 39899 40090 57010 885//=
27627 82597 82101 10066 21044 39833 40099 57008 885//=
27643 42997 01601 11004 21038 39981 40124 54000 333 91001 91102=
27648 82997 01201 11013 21035 39950 40121 57004=
27653 42996 00702 11020 21059 39972 40128 54000 333 91002 91102=
27665 42997 00901 10015 21085 39856 40127 58001 333 91002 91103=
27679 42998 02703 10010 21089 39902 40127 52002 333 91004 91104=
27697 42998 02003 11005 21036 39927 40124 54001=
27707 81575 71502 10077 20013 39804 40091 57011 72582 87500=
27719 82597 61802 10083 21017 39856 40101 58008 8437/=
27730 82998 31402 10053 21056 39915 40107 57007 83020=
27752 42997 00000 11011 21047 39954 40128 58002 333 91000 91102=
27756 42997 02702 10028 21088 39894 40127 54000 333 91004 91104=
27760 42997 01201 10004 21075 39886 40136 52001 333 91001 91103=
27776 82970 02601 11049 21067 30005 40133 52005=
27785 82997 22501 11011 21055 39967 40130 52003 82030=
27799 42997 02801 11025 21042 30035 40128 52006=
27817 42597 81501 10080 20017 39859 40102 57011 885//=
27821 82598 72302 10071 21005 39834 40112 58005 87500=
27823 82999 82302 10063 21025 39857 40111 57005 8803/=
27835 829// 81401 10040 21025 39955 40112 58005 8802/=
27848 42997 01001 10015 21040 39946 40123 57001=
27857 42997 01502 10001 21036 39966 40131 54001=
27858 42997 01702 10011 21071 39810 40133 57002=
27872 42980 00000 11052 21075 39918 40141 52004=
27906 42597 81602 10094 20027 39866 40102 57009 883//=
27921 82997 80901 10084 20013 39854 40113 58008 8807/=
27928 42597 80000 10090 20013 39914 40116 57005 8355/=
27930 42960 83002 10079 21017 39905 40120 57004 8807/=
27935 42998 72502 10069 21055 39925 40118 58006 80001=
27947 42960 70000 10024 21039 39958 40124 58003 84032=
27955 42978 01701 10019 21058 39879 40134 57003=
27957 42997 30000 10009 21051 39915 40125 54000 80002=
27962 42997 02802 11015 21067 39921 40138 54000=
27972 42976 01101 11031 21045 39823 40141 54001=
27981 42997 03201 11031 21066 30016 40142 52007=
27983 42969 42701 11004 21055 30003 40134 52003 80070=
27995 42573 82501 10008 21030 30074 40135 52004 8553/=
28044 42597 83403 10000 21036 39902 40057 52002 885//=
28049 42997 83506 11002 21033 39878 40041 52004 8807/=
28064 42598 83306 11005 21020 39918 40005 52001 885//=
28076 42697 82801 11005 21012 39910 49981 57002 885//=
28097 42997 00000 11016 21017 39908 49984 57003=
28116 41499 83402 11003 21003 39853 40085 52004 70272 8872/=
28138 42598 80304 11015 21024 39494 40060 52006 885//=
28144 41496 83303 11004 21017 39896 40052 52005 77172 8872/=
28216 41896 83002 11006 21014 39785 40082 52007 77172 8802/=
28224 41496 83002 10003 21014 39858 40070 52002 77172 8872/=
28240 41596 83503 11005 21007 39731 40052 52008 78582 889//=
28275 42597 82303 10014 21003 39931 49992 58004 889//=
28319 42999 10000 11045 21054 39920 40086 52006 80001=
28321 41896 83002 11002 21036 39874 40077 52005 77172 8807/=
28334 41495 82402 11010 21026 39760 40067 54000 77272 8802/=
28366 41596 82401 10011 21010 39943 40005 57003 76186 8802/=
28367 41497 82203 10002 21002 39889 40014 57007 77172 8802/=
28382 42998 22304 10018 21002 39937 40005 50006 80001=
28383 42997 22506 10032 20002 39930 40010 52008 80001=
28428 42598 82701 11017 21041 39899 40085 52005 885//=
28434 42598 72801 11018 21071 39817 40074 51003 87900=
28451 41495 82604 11007 21017 39874 40032 57004 77372 8802/=
28465 42998 02304 10005 21030 39949 40025 57006=
28481 42997 02101 10013 21039 39928 40023 58001 333 91110=
28491 42997 42602 10046 21002 39913 40019 52009 80001=
28493 81997 72702 10070 20052 39917 40005 56007 70282 87070=
28506 42997 63003 10004 21026 39983 40096 52006 8604/=
28517 41597 83004 10005 21015 39949 40088 52006 77172 885//=
28522 425// 71801 11020 21033 39825 40083 52004 87500=
28541 42998 52802 11026 21057 39575 40067 54000 85030=
28552 42597 52403 11003 21039 39935 40046 54001 85900=
28573 43997 02402 11012 21029 39935 40038 57002=
28586 82997 23002 10037 21023 39889 40031 51009 80001=
28588 81996 02502 10010 21021 39884 40039 50002 71011=
28593 41597 82604 10073 20057 39918 40010 56004 72582 883//=
28612 41598 82903 10002 21016 39992 40091 52006 70282 889//=
28621 41596 81701 11007 21018 39851 40083 52003 78582 889//=
28645 42496 52801 11010 21042 39777 40072 52001 85300=
28655 42998 02802 11006 21048 39838 40058 57002=
28661 42997 01802 11009 21030 39960 40052 57004=
28666 42999 02502 11006 21036 39875 40049 54001=
28688 82997 33001 10010 21009 39888 40043 50004 80001=
28696 41597 82603 10070 20070 39889 40022 55000 70282 889//=
28698 81997 83204 10071 21000 39887 40035 53006 70282 80001=
28704 42998 82201 11010 21027 30023 40120 52004 82031=
28711 41397 82803 11011 21020 39726 40103 52003 70282 883// 333 86709=
28719 41495 82602 11017 21033 39674 40104 54001 78582 889//=
28722 41596 82402 11004 21023 39959 40090 52003 78582 889//=
28748 42997 02503 11018 21048 39837 40076 52006=
28756 42597 72101 11018 21045 39914 40061 57003 87500=
28764 429// 32701 11008 21033 39857 40057 58002 83030=
28786 42997 02601 10015 21001 39893 40047 52006=
28791 41998 03302 10054 21005 39903 40041 52010 70181=
28797 81997 02702 10054 20027 39893 40045 53010 70281=
28799 81496 83302 10081 20077 39888 40026 52004 76182 8802/=
28825 42597 82401 10005 21036 39934 40105 52005 889//=
28838 42997 62405 11011 21050 39622 40095 52003 86030=
28909 42997 72002 10002 21024 30018 40118 54000 87030=
29059 428// 81202 10024 21003 30015 40143 57028 8807/=
29068 425// 81404 10015 21007 30077 40161 57021 889//=
29149 42998 81203 10019 20001 39987 40117 57026 8805/=
29154 42597 81503 10019 20006 39982 40124 58029 889//=
29209 41597 81401 10053 20048 39885 40007 57024 78082 889//=
29231 42498 81103 10023 20013 39961 40055 57028 8693/=
29253 426// 81401 10021 21004 39971 40140 57027 885//=
29263 42980 71101 10004 21013 30063 40167 57027 83031=
29274 42683 80904 11003 21018 30074 40187 57019 885//=
29276 46/// /0701 11030 21035 39987 40205 57018=
29282 42984 80801 11020 21024 30051 40221 58010 8807/=
29313 41597 81202 10057 20045 39896 40014 57030 78082 889//=
29328 42598 81203 10051 20026 39902 40037 57035 8597/=
29332 42998 20803 10018 20008 39924 40063 57031 82030=
29348 42997 80702 10021 20002 39950 40094 57035 8807/=
29363 46/// /1403 10007 20003 39938 40163 56022=
29367 46/// /1103 10022 20014 39917 40141 58027=
29374 425// 80501 10004 21002 30062 40179 58022 885//=
29379 42998 61502 10002 21005 39984 40195 56018 86030=
29393 429// 00000 11031 21035 39943 40223 54000=
29418 41496 81303 10085 20076 39845 49996 57031 78082 889//=
29430 42998 80502 10033 20010 39891 40062 57038 8805/=
29456 429// 70902 10014 20005 39868 40122 57033 87030=
29464 429// 61104 10014 20008 39851 40137 57027 83031=
29467 42598 71001 10014 20006 39814 40131 57028 87500=
29471 42597 81002 10020 20020 39943 40167 57025 8392/=
29477 42598 81002 10033 20012 39963 40166 57026 8692/=
29481 42599 81102 10002 21001 39955 40192 57019 8572/=
29485 425// 80903 10002 21013 39899 40205 58008 889//=
29524 41497 81001 10071 20047 39857 40012 57031 78082 889//=
29551 42598 81003 10033 20007 39916 40094 56041 883//=
29553 41997 80903 10012 20011 39767 40126 57030 71022 8802/=
29557 42998 81801 10017 20001 39840 40101 56037 83037=
29558 42998 81802 10048 20010 39725 40111 57031 80005=
29561 428// 80903 10016 20002 39812 40128 57027 8801/=
29562 42584 80902 10015 21001 39735 40144 57031 8691/=
29563 42999 60803 10002 21007 39568 40154 57024 80002=
29566 41696 80201 10008 20001 39815 40155 58023 74022 82507=
29571 42584 81001 10013 20011 39865 40156 57023 8801/=
29576 42597 80702 10001 21003 39718 40181 57013 8693/=
29578 42999 81102 11004 21006 39673 40165 58019 8807/=
29580 414// 80803 10012 20009 39735 40179 57017 70252 8497/=
29581 425// 71102 10024 20008 39937 40190 57012 8297/=
29587 429// 20000 11025 21026 39872 40190 57013 80001=
29594 425// 80702 10007 20007 39826 40208 55006 85936=
29605 41496 83005 10091 20080 39870 40005 57005 78182 889//=
29612 41497 81103 10093 20080 39847 49990 58037 78082 883//=
29625 42598 81002 10076 20054 39839 40007 57043 885// 333 88623=
29631 42598 81004 10084 20032 39845 40021 57050 889//=
29636 42598 81102 10065 20032 39842 40051 57039 883//=
29638 41597 81104 10106 20048 39866 40023 57050 78082 889//=
29645 42998 80000 10052 20029 39890 40070 56032 8805/=
29653 42997 71502 10014 20006 39657 40131 57025 80008=
29654 42599 70701 10052 21001 39494 40088 56030 82971=
29662 42999 80802 10022 20003 39744 40139 57025 8801/=
29664 42998 60501 10005 20002 39739 40140 57022 80001=
29674 46/// /0000 11029 21033 3//// 4//// 5////=
29676 42998 80000 11033 21036 39755 40178 57014 80005=
29698 429// 22801 11008 21011 39698 40209 52004 80001=
29706 41597 82903 10103 20096 39851 49988 57024 78082 883//=
29712 41597 80602 10093 20084 39851 49986 58036 78082 889//=
29724 41597 80902 10092 20070 39794 49985 56060 78082 8697/=
29726 41597 80802 10104 20050 39847 40005 58054 78082 889//=
29752 429// 82202 10074 21013 38750 48423 57020 83045=
29759 429// 80000 10023 20004 39135 40134 57024 8802/=
29766 42699 71202 10016 21001 39793 40141 58019 83501=
29768 46/// /1101 10038 20017 39821 40132 58023=
29771 429// 00000 11016 21035 39213 40181 57012=
29789 42999 00000 11012 21024 39035 40207 58003=
29838 42597 80802 10121 20062 39810 40028 57040 885//=
29864 46/// /3103 10019 21002 39502 40138 57021=
29866 429// 50000 10034 20019 39814 40126 57020 80001=
29869 426// 30000 10018 20005 39764 40131 57020 83500=
29874 43/// /0000 10025 20012 39747 40139 58018=
29876 429// 71402 10036 20010 39623 40163 58007 80001=
29923 43/// /1206 10133 20076 39752 40008 58050 333 91110=
29937 42599 80301 10127 20077 39817 40024 57037 885//=
29939 42598 71103 10113 20059 39787 40053 58023 86530=
29956 42984 02502 10017 20012 39585 40133 58039=
29974 428// 20904 10050 21012 38576 48469 57015 82030 333 95090=
29998 42999 00901 11038 21061 38622 48486 52005=



SMUS20 KWBC 242100
AAXX 24214